createdAt,value
2019-05-22T00:00:59.342Z,14.50
2019-05-22T00:03:37.788Z,14.60
2019-05-22T00:06:09.816Z,14.70
2019-05-22T00:08:41.649Z,14.60
2019-05-22T00:11:13.479Z,14.60
2019-05-22T00:13:45.553Z,14.50
2019-05-22T00:16:17.352Z,14.60
2019-05-22T00:18:52.730Z,14.30
2019-05-22T00:21:25.156Z,14.40
2019-05-22T00:23:55.562Z,14.40
2019-05-22T00:26:28.524Z,14.40
2019-05-22T00:29:01.947Z,14.50
2019-05-22T00:31:32.315Z,14.50
2019-05-22T00:34:03.596Z,14.50
2019-05-22T00:36:33.947Z,14.60
2019-05-22T00:39:05.394Z,14.70
2019-05-22T00:41:35.828Z,14.70
2019-05-22T00:44:08.296Z,14.70
2019-05-22T00:46:40.220Z,14.60
2019-05-22T00:49:13.468Z,14.60
2019-05-22T00:52:03.104Z,14.60
2019-05-22T00:54:47.066Z,14.60
2019-05-22T00:57:35.104Z,14.60
2019-05-22T01:00:21.931Z,14.60
2019-05-22T01:02:54.363Z,14.60
2019-05-22T01:05:28.000Z,14.60
2019-05-22T01:07:58.311Z,14.60
2019-05-22T01:10:30.372Z,14.70
2019-05-22T01:13:03.379Z,14.70
2019-05-22T01:15:35.346Z,14.60
2019-05-22T01:18:10.327Z,14.50
2019-05-22T01:20:42.453Z,14.50
2019-05-22T01:23:18.155Z,14.40
2019-05-22T01:25:49.055Z,14.40
2019-05-22T01:28:24.165Z,14.50
2019-05-22T01:31:28.755Z,14.40
2019-05-22T01:34:19.253Z,14.40
2019-05-22T01:36:59.971Z,14.30
2019-05-22T01:39:49.363Z,14.30
2019-05-22T01:42:25.786Z,14.30
2019-05-22T01:45:05.982Z,14.20
2019-05-22T01:48:06.827Z,14.10
2019-05-22T01:50:57.050Z,14.10
2019-05-22T01:53:37.612Z,14.20
2019-05-22T01:56:11.535Z,14.10
2019-05-22T01:58:43.695Z,14.10
2019-05-22T02:01:18.648Z,14.00
2019-05-22T02:03:51.039Z,14.10
2019-05-22T02:06:23.674Z,14.10
2019-05-22T02:09:28.702Z,14.10
2019-05-22T02:12:07.516Z,14.10
2019-05-22T02:14:41.606Z,14.00
2019-05-22T02:17:12.364Z,14.10
2019-05-22T02:19:43.524Z,14.00
2019-05-22T02:22:15.256Z,14.00
2019-05-22T02:24:48.839Z,14.10
2019-05-22T02:27:21.260Z,14.00
2019-05-22T02:29:55.464Z,13.90
2019-05-22T02:32:28.677Z,13.90
2019-05-22T02:35:00.676Z,14.00
2019-05-22T02:37:34.662Z,14.00
2019-05-22T02:40:09.737Z,13.90
2019-05-22T02:42:40.710Z,13.80
2019-05-22T02:45:11.539Z,13.90
2019-05-22T02:47:43.696Z,13.90
2019-05-22T02:50:14.910Z,13.80
2019-05-22T02:52:45.646Z,13.80
2019-05-22T02:55:17.690Z,13.80
2019-05-22T02:57:48.411Z,13.90
2019-05-22T03:00:19.935Z,14.00
2019-05-22T03:02:53.524Z,14.00
2019-05-22T03:05:25.350Z,14.00
2019-05-22T03:07:57.652Z,14.10
2019-05-22T03:10:29.353Z,13.90
2019-05-22T03:13:00.024Z,13.90
2019-05-22T03:15:30.537Z,13.90
2019-05-22T03:18:02.660Z,13.80
2019-05-22T03:20:35.928Z,13.70
2019-05-22T03:23:24.150Z,13.60
2019-05-22T03:25:54.867Z,13.60
2019-05-22T03:28:25.980Z,13.50
2019-05-22T03:30:57.461Z,13.40
2019-05-22T03:33:27.745Z,13.40
2019-05-22T03:36:10.722Z,13.40
2019-05-22T03:38:42.512Z,13.30
2019-05-22T03:41:14.866Z,13.20
2019-05-22T03:43:48.572Z,13.30
2019-05-22T03:46:44.578Z,13.10
2019-05-22T03:49:29.958Z,13.30
2019-05-22T03:51:52.529Z,13.30
2019-05-22T03:54:24.709Z,13.20
2019-05-22T03:56:58.567Z,13.30
2019-05-22T03:59:30.335Z,13.40
2019-05-22T04:02:00.926Z,13.10
2019-05-22T04:04:39.416Z,13.10
2019-05-22T04:07:15.806Z,13.30
2019-05-22T04:09:48.719Z,13.20
2019-05-22T04:12:21.589Z,13.20
2019-05-22T04:14:52.978Z,13.30
2019-05-22T04:17:25.192Z,13.20
2019-05-22T04:19:57.382Z,13.20
2019-05-22T04:22:30.854Z,13.20
2019-05-22T04:25:01.992Z,13.30
2019-05-22T04:27:33.503Z,13.20
2019-05-22T04:30:06.492Z,13.10
2019-05-22T04:32:39.805Z,13.20
2019-05-22T04:35:12.985Z,13.30
2019-05-22T04:37:45.723Z,13.20
2019-05-22T04:40:58.563Z,13.30
2019-05-22T04:43:32.672Z,13.20
2019-05-22T04:46:06.796Z,13.40
2019-05-22T04:48:38.371Z,13.40
2019-05-22T04:51:26.567Z,13.40
2019-05-22T04:53:59.082Z,13.40
2019-05-22T04:56:30.857Z,13.50
2019-05-22T04:59:02.914Z,13.40
2019-05-22T05:01:34.997Z,13.40
2019-05-22T05:04:06.851Z,13.30
2019-05-22T05:06:40.877Z,13.40
2019-05-22T05:09:13.746Z,13.40
2019-05-22T05:11:45.220Z,13.50
2019-05-22T05:14:16.061Z,13.50
2019-05-22T05:16:49.303Z,13.50
2019-05-22T05:19:20.523Z,13.50
2019-05-22T05:21:51.486Z,13.40
2019-05-22T05:24:23.997Z,13.40
2019-05-22T05:26:55.119Z,13.40
2019-05-22T05:29:33.473Z,13.50
2019-05-22T05:32:06.216Z,13.40
2019-05-22T05:35:02.235Z,13.40
2019-05-22T05:37:33.844Z,13.40
2019-05-22T05:40:42.416Z,13.20
2019-05-22T05:43:15.649Z,13.20
2019-05-22T05:45:49.755Z,13.20
2019-05-22T05:48:26.115Z,13.20
2019-05-22T05:51:28.611Z,13.20
2019-05-22T05:54:18.005Z,13.30
2019-05-22T05:56:49.874Z,13.30
2019-05-22T05:59:21.855Z,13.20
2019-05-22T06:02:00.608Z,13.30
2019-05-22T06:04:38.029Z,13.30
2019-05-22T06:07:22.932Z,13.00
2019-05-22T06:10:41.069Z,13.10
2019-05-22T06:13:13.100Z,13.30
2019-05-22T06:16:31.153Z,13.30
2019-05-22T06:19:02.914Z,13.20
2019-05-22T06:21:33.999Z,13.20
2019-05-22T06:24:28.260Z,13.10
2019-05-22T06:27:11.113Z,13.00
2019-05-22T06:29:53.263Z,13.10
2019-05-22T06:33:02.575Z,13.10
2019-05-22T06:35:36.289Z,13.10
2019-05-22T06:38:42.787Z,13.10
2019-05-22T06:41:14.382Z,13.10
2019-05-22T06:44:27.108Z,13.10
2019-05-22T06:46:58.313Z,13.00
2019-05-22T06:50:01.001Z,13.20
2019-05-22T06:52:31.995Z,13.20
2019-05-22T06:55:04.497Z,13.10
2019-05-22T06:57:36.059Z,13.00
2019-05-22T07:00:14.630Z,13.10
2019-05-22T07:02:45.978Z,13.20
2019-05-22T07:05:16.912Z,13.20
2019-05-22T07:07:48.927Z,13.10
2019-05-22T07:10:20.986Z,13.20
2019-05-22T07:12:51.935Z,13.20
2019-05-22T07:15:34.168Z,13.20
2019-05-22T07:18:07.629Z,13.10
2019-05-22T07:20:40.064Z,12.90
2019-05-22T07:23:15.139Z,13.10
2019-05-22T07:25:47.338Z,12.90
2019-05-22T07:28:19.702Z,13.00
2019-05-22T07:30:52.390Z,13.10
2019-05-22T07:33:25.147Z,13.10
2019-05-22T07:36:17.030Z,13.20
2019-05-22T07:38:32.652Z,13.20
2019-05-22T07:41:04.024Z,13.10
2019-05-22T07:43:41.189Z,13.10
2019-05-22T07:46:11.800Z,13.00
2019-05-22T07:48:42.596Z,13.00
2019-05-22T07:51:16.393Z,13.00
2019-05-22T07:53:46.199Z,12.90
2019-05-22T07:56:17.912Z,12.90
2019-05-22T07:58:49.159Z,13.00
2019-05-22T08:01:20.628Z,13.00
2019-05-22T08:03:56.570Z,13.00
2019-05-22T08:06:27.233Z,13.10
2019-05-22T08:09:00.175Z,13.00
2019-05-22T08:11:30.900Z,13.00
2019-05-22T08:14:02.365Z,13.00
2019-05-22T08:16:35.058Z,12.70
2019-05-22T08:19:06.038Z,13.00
2019-05-22T08:21:38.990Z,12.90
2019-05-22T08:24:10.419Z,13.00
2019-05-22T08:26:53.872Z,12.80
2019-05-22T08:29:16.299Z,12.90
2019-05-22T08:31:48.528Z,12.90
2019-05-22T08:34:20.435Z,12.90
2019-05-22T08:36:51.030Z,12.90
2019-05-22T08:39:23.445Z,12.80
2019-05-22T08:41:58.309Z,12.90
2019-05-22T08:44:29.675Z,12.90
2019-05-22T08:47:00.988Z,12.90
2019-05-22T08:49:32.520Z,12.80
2019-05-22T08:52:04.890Z,12.90
2019-05-22T08:54:36.200Z,13.00
2019-05-22T08:57:09.945Z,13.00
2019-05-22T08:59:40.638Z,13.00
2019-05-22T09:02:12.135Z,12.90
2019-05-22T09:04:43.223Z,13.00
2019-05-22T09:07:13.883Z,13.00
2019-05-22T09:09:44.329Z,13.00
2019-05-22T09:12:16.658Z,12.90
2019-05-22T09:14:49.057Z,12.90
2019-05-22T09:17:21.455Z,12.90
2019-05-22T09:19:53.001Z,13.00
2019-05-22T09:22:39.135Z,13.00
2019-05-22T09:24:56.702Z,13.00
2019-05-22T09:27:27.806Z,13.00
2019-05-22T09:29:58.572Z,13.00
2019-05-22T09:32:29.328Z,13.20
2019-05-22T09:34:59.772Z,13.20
2019-05-22T09:37:30.812Z,13.30
2019-05-22T09:40:02.238Z,13.30
2019-05-22T09:42:34.389Z,13.10
2019-05-22T09:45:05.967Z,13.00
2019-05-22T09:47:38.692Z,13.10
2019-05-22T09:50:14.799Z,13.10
2019-05-22T09:52:57.072Z,13.20
2019-05-22T09:55:21.181Z,13.30
2019-05-22T09:57:58.923Z,13.30
2019-05-22T10:00:33.636Z,13.30
2019-05-22T10:03:03.207Z,13.40
2019-05-22T10:05:34.224Z,13.50
2019-05-22T10:08:06.243Z,13.50
2019-05-22T10:10:38.473Z,13.50
2019-05-22T10:13:09.993Z,13.40
2019-05-22T10:15:40.880Z,13.50
2019-05-22T10:18:12.193Z,13.50
2019-05-22T10:20:43.557Z,13.50
2019-05-22T10:23:16.424Z,13.50
2019-05-22T10:25:49.514Z,13.70
2019-05-22T10:28:20.166Z,13.60
2019-05-22T10:30:51.575Z,13.70
2019-05-22T10:33:22.297Z,13.50
2019-05-22T10:35:56.185Z,13.50
2019-05-22T10:38:26.814Z,13.50
2019-05-22T10:40:59.360Z,13.40
2019-05-22T10:43:30.470Z,13.40
2019-05-22T10:46:01.062Z,13.50
2019-05-22T10:48:31.738Z,13.30
2019-05-22T10:51:02.198Z,13.40
2019-05-22T10:53:34.279Z,13.50
2019-05-22T10:56:06.005Z,13.70
2019-05-22T10:58:38.606Z,13.90
2019-05-22T11:01:11.568Z,14.00
2019-05-22T11:03:43.926Z,14.10
2019-05-22T11:06:17.130Z,14.20
2019-05-22T11:08:50.329Z,14.40
2019-05-22T11:11:21.869Z,14.40
2019-05-22T11:14:01.414Z,14.50
2019-05-22T11:16:25.992Z,14.70
2019-05-22T11:18:57.769Z,14.70
2019-05-22T11:21:29.341Z,14.80
2019-05-22T11:24:00.553Z,14.70
2019-05-22T11:26:32.465Z,14.70
2019-05-22T11:29:03.735Z,14.70
2019-05-22T11:31:35.752Z,14.90
2019-05-22T11:34:06.781Z,14.90
2019-05-22T11:36:38.638Z,15.10
2019-05-22T11:39:14.241Z,15.10
2019-05-22T11:41:45.216Z,15.20
2019-05-22T11:44:15.835Z,15.10
2019-05-22T11:46:47.623Z,15.20
2019-05-22T11:49:19.615Z,15.20
2019-05-22T11:51:50.281Z,15.30
2019-05-22T11:54:20.973Z,15.30
2019-05-22T11:56:52.152Z,15.30
2019-05-22T11:59:24.086Z,15.20
2019-05-22T12:01:55.342Z,15.20
2019-05-22T12:04:26.347Z,15.40
2019-05-22T12:07:01.265Z,15.30
2019-05-22T12:09:32.593Z,15.50
2019-05-22T12:12:03.540Z,15.70
2019-05-22T12:14:35.620Z,15.90
2019-05-22T12:17:07.013Z,16.10
2019-05-22T12:19:37.807Z,16.00
2019-05-22T12:22:09.147Z,15.90
2019-05-22T12:24:39.776Z,16.00
2019-05-22T12:27:11.611Z,16.00
2019-05-22T12:29:44.136Z,15.90
2019-05-22T12:32:15.139Z,16.00
2019-05-22T12:34:46.119Z,16.00
2019-05-22T12:37:17.342Z,15.90
2019-05-22T12:39:48.803Z,16.00
2019-05-22T12:42:19.440Z,16.00
2019-05-22T12:44:52.881Z,15.90
2019-05-22T12:47:29.433Z,15.80
2019-05-22T12:50:00.821Z,15.90
2019-05-22T12:52:31.577Z,15.90
2019-05-22T12:55:03.173Z,15.80
2019-05-22T12:57:34.379Z,15.80
2019-05-22T13:00:06.192Z,15.50
2019-05-22T13:02:42.241Z,15.60
2019-05-22T13:05:14.497Z,15.60
2019-05-22T13:07:44.794Z,15.60
2019-05-22T13:10:17.274Z,15.60
2019-05-22T13:12:48.494Z,15.60
2019-05-22T13:15:27.489Z,15.40
2019-05-22T13:17:59.970Z,15.40
2019-05-22T13:20:42.399Z,15.50
2019-05-22T13:23:09.921Z,15.40
2019-05-22T13:25:43.325Z,15.40
2019-05-22T13:28:17.091Z,15.40
2019-05-22T13:30:51.287Z,15.70
2019-05-22T13:33:28.738Z,15.60
2019-05-22T13:36:00.604Z,15.70
2019-05-22T13:38:31.245Z,16.00
2019-05-22T13:41:04.426Z,16.10
2019-05-22T13:43:36.176Z,16.20
2019-05-22T13:46:07.308Z,16.20
2019-05-22T13:48:37.901Z,16.20
2019-05-22T13:51:11.286Z,16.10
2019-05-22T13:53:43.382Z,16.30
2019-05-22T13:56:15.337Z,16.30
2019-05-22T13:58:47.140Z,16.20
2019-05-22T14:01:18.792Z,16.30
2019-05-22T14:03:49.547Z,16.30
2019-05-22T14:06:20.418Z,16.50
2019-05-22T14:08:51.840Z,16.50
2019-05-22T14:11:28.915Z,16.10
2019-05-22T14:14:00.007Z,16.40
2019-05-22T14:16:30.817Z,16.50
2019-05-22T14:19:01.540Z,16.50
2019-05-22T14:21:34.797Z,16.50
2019-05-22T14:24:05.852Z,16.50
2019-05-22T14:26:36.494Z,16.70
2019-05-22T14:29:09.644Z,16.70
2019-05-22T14:31:41.182Z,16.80
2019-05-22T14:34:13.650Z,17.00
2019-05-22T14:36:44.728Z,17.00
2019-05-22T14:39:16.223Z,16.90
2019-05-22T14:41:47.025Z,17.00
2019-05-22T14:44:17.844Z,16.90
2019-05-22T14:46:48.620Z,17.00
2019-05-22T14:49:20.893Z,17.10
2019-05-22T14:51:52.109Z,17.20
2019-05-22T14:54:24.364Z,17.00
2019-05-22T14:56:56.042Z,17.10
2019-05-22T14:59:27.538Z,17.30
2019-05-22T15:01:58.379Z,17.50
2019-05-22T15:04:30.417Z,17.40
2019-05-22T15:07:01.270Z,17.50
2019-05-22T15:09:32.179Z,17.50
2019-05-22T15:12:02.875Z,17.60
2019-05-22T15:14:33.595Z,17.80
2019-05-22T15:17:04.773Z,17.80
2019-05-22T15:19:37.884Z,17.60
2019-05-22T15:22:09.319Z,17.50
2019-05-22T15:24:40.727Z,17.70
2019-05-22T15:27:14.517Z,17.80
2019-05-22T15:29:46.431Z,17.70
2019-05-22T15:32:20.742Z,17.80
2019-05-22T15:34:51.999Z,17.60
2019-05-22T15:37:25.447Z,17.70
2019-05-22T15:39:56.596Z,17.70
2019-05-22T15:42:40.311Z,17.80
2019-05-22T15:45:19.468Z,18.00
2019-05-22T15:47:56.321Z,18.00
2019-05-22T15:50:29.008Z,18.20
2019-05-22T15:53:05.488Z,18.10
2019-05-22T15:55:36.846Z,18.20
2019-05-22T15:58:08.908Z,18.30
2019-05-22T16:00:41.199Z,18.30
2019-05-22T16:03:15.519Z,18.40
2019-05-22T16:05:47.864Z,18.50
2019-05-22T16:08:19.397Z,18.40
2019-05-22T16:10:52.365Z,18.40
2019-05-22T16:13:26.910Z,18.30
2019-05-22T16:15:59.990Z,18.20
2019-05-22T16:18:34.835Z,18.20
2019-05-22T16:21:08.232Z,18.20
2019-05-22T16:23:40.398Z,18.30
2019-05-22T16:26:13.346Z,18.20
2019-05-22T16:28:47.775Z,18.40
2019-05-22T16:31:20.811Z,18.40
2019-05-22T16:33:53.122Z,18.30
2019-05-22T16:36:25.076Z,18.40
2019-05-22T16:38:56.887Z,18.50
2019-05-22T16:41:28.249Z,18.60
2019-05-22T16:43:59.898Z,18.60
2019-05-22T16:46:31.404Z,18.70
2019-05-22T16:49:03.772Z,18.60
2019-05-22T16:51:34.857Z,18.50
2019-05-22T16:54:08.409Z,18.60
2019-05-22T16:56:41.143Z,18.60
2019-05-22T16:59:14.420Z,18.60
2019-05-22T17:01:58.674Z,18.70
2019-05-22T17:04:18.792Z,18.70
2019-05-22T17:06:49.632Z,18.70
2019-05-22T17:09:24.771Z,18.70
2019-05-22T17:11:56.858Z,18.70
2019-05-22T17:14:29.846Z,18.70
2019-05-22T17:17:00.721Z,18.70
2019-05-22T17:19:33.420Z,18.70
2019-05-22T17:22:06.548Z,18.70
2019-05-22T17:24:37.996Z,18.70
2019-05-22T17:27:10.804Z,18.60
2019-05-22T17:29:44.167Z,18.50
2019-05-22T17:32:16.094Z,18.30
2019-05-22T17:34:47.442Z,18.40
2019-05-22T17:37:21.411Z,18.30
2019-05-22T17:39:53.043Z,18.40
2019-05-22T17:42:27.434Z,18.30
2019-05-22T17:44:58.814Z,18.40
2019-05-22T17:47:30.956Z,18.40
2019-05-22T17:50:06.244Z,18.40
2019-05-22T17:52:38.129Z,18.40
2019-05-22T17:55:10.589Z,18.50
2019-05-22T17:57:41.903Z,18.60
2019-05-22T18:00:22.572Z,18.40
2019-05-22T18:02:53.741Z,18.40
2019-05-22T18:05:25.089Z,18.40
2019-05-22T18:07:56.395Z,18.40
2019-05-22T18:10:27.435Z,18.40
2019-05-22T18:12:58.504Z,18.40
2019-05-22T18:15:29.456Z,18.30
2019-05-22T18:18:00.949Z,18.30
2019-05-22T18:20:42.292Z,18.30
2019-05-22T18:23:05.611Z,18.40
2019-05-22T18:25:37.429Z,18.30
2019-05-22T18:28:10.424Z,18.30
2019-05-22T18:30:44.316Z,18.20
2019-05-22T18:33:16.261Z,18.20
2019-05-22T18:35:47.592Z,18.20
2019-05-22T18:38:18.227Z,18.20
2019-05-22T18:40:51.480Z,18.20
2019-05-22T18:43:26.040Z,18.10
2019-05-22T18:46:00.520Z,18.10
2019-05-22T18:48:33.250Z,18.10
2019-05-22T18:51:06.464Z,18.00
2019-05-22T18:53:37.419Z,17.90
2019-05-22T18:56:10.923Z,17.90
2019-05-22T18:58:41.928Z,17.80
2019-05-22T19:01:12.587Z,17.70
2019-05-22T19:03:43.525Z,17.60
2019-05-22T19:06:14.312Z,17.60
2019-05-22T19:08:46.683Z,17.60
2019-05-22T19:11:17.231Z,17.70
2019-05-22T19:13:47.873Z,17.50
2019-05-22T19:16:18.379Z,17.30
2019-05-22T19:18:51.441Z,17.10
2019-05-22T19:21:22.593Z,17.00
2019-05-22T19:23:53.070Z,16.80
2019-05-22T19:26:24.411Z,16.70
2019-05-22T19:28:55.468Z,16.60
2019-05-22T19:31:26.268Z,16.50
2019-05-22T19:33:56.649Z,16.50
2019-05-22T19:36:27.846Z,16.40
2019-05-22T19:38:58.477Z,16.30
2019-05-22T19:41:29.277Z,16.20
2019-05-22T19:43:59.526Z,16.20
2019-05-22T19:46:30.873Z,16.10
2019-05-22T19:49:01.858Z,16.10
2019-05-22T19:51:32.916Z,16.10
2019-05-22T19:54:03.748Z,16.00
2019-05-22T19:56:34.350Z,16.00
2019-05-22T19:59:05.910Z,15.90
2019-05-22T20:01:36.303Z,15.90
2019-05-22T20:04:06.915Z,15.90
2019-05-22T20:06:38.526Z,15.80
2019-05-22T20:09:11.816Z,15.90
2019-05-22T20:11:43.238Z,15.80
2019-05-22T20:14:16.728Z,15.80
2019-05-22T20:16:47.157Z,15.70
2019-05-22T20:19:18.426Z,15.60
2019-05-22T20:21:49.593Z,15.50
2019-05-22T20:24:20.609Z,15.50
2019-05-22T20:26:50.941Z,15.40
2019-05-22T20:29:22.406Z,15.40
2019-05-22T20:31:53.371Z,15.30
2019-05-22T20:34:23.908Z,15.20
2019-05-22T20:36:55.248Z,15.10
2019-05-22T20:39:29.304Z,15.10
2019-05-22T20:41:58.134Z,15.00
2019-05-22T20:44:31.297Z,14.90
2019-05-22T20:47:02.652Z,14.80
2019-05-22T20:49:36.401Z,14.80
2019-05-22T20:52:10.721Z,14.80
2019-05-22T20:54:40.930Z,14.80
2019-05-22T20:57:12.958Z,14.70
2019-05-22T20:59:45.932Z,14.70
2019-05-22T21:02:18.726Z,14.60
2019-05-22T21:04:51.507Z,14.60
2019-05-22T21:07:26.759Z,14.50
2019-05-22T21:09:57.665Z,14.40
2019-05-22T21:12:28.650Z,14.50
2019-05-22T21:15:01.429Z,14.40
2019-05-22T21:17:32.808Z,14.40
2019-05-22T21:20:04.772Z,14.40
2019-05-22T21:22:35.844Z,14.40
2019-05-22T21:25:08.190Z,14.30
2019-05-22T21:27:39.546Z,14.20
2019-05-22T21:30:12.927Z,14.20
2019-05-22T21:32:44.311Z,14.10
2019-05-22T21:35:17.392Z,14.10
2019-05-22T21:37:48.675Z,14.00
2019-05-22T21:40:25.720Z,14.10
2019-05-22T21:43:00.394Z,14.00
2019-05-22T21:45:31.721Z,14.00
2019-05-22T21:48:04.094Z,13.90
2019-05-22T21:50:34.867Z,13.80
2019-05-22T21:53:09.717Z,13.80
2019-05-22T21:55:45.433Z,13.80
2019-05-22T21:58:16.312Z,13.70
2019-05-22T22:01:26.774Z,13.70
2019-05-22T22:04:03.399Z,13.60
2019-05-22T22:06:37.541Z,13.60
2019-05-22T22:09:09.141Z,13.50
2019-05-22T22:11:42.745Z,13.50
2019-05-22T22:14:14.005Z,13.50
2019-05-22T22:16:45.464Z,13.50
2019-05-22T22:19:18.440Z,13.50
2019-05-22T22:21:49.698Z,13.40
2019-05-22T22:24:21.116Z,13.40
2019-05-22T22:26:52.073Z,13.40
2019-05-22T22:29:23.030Z,13.30
2019-05-22T22:31:55.012Z,13.30
2019-05-22T22:34:38.437Z,13.30
2019-05-22T22:37:11.447Z,13.30
2019-05-22T22:39:50.465Z,13.20
2019-05-22T22:42:24.940Z,13.10
2019-05-22T22:44:57.867Z,13.10
2019-05-22T22:47:44.146Z,13.00
2019-05-22T22:50:17.060Z,13.10
2019-05-22T22:52:48.727Z,13.00
2019-05-22T22:55:21.057Z,13.00
2019-05-22T22:57:52.349Z,13.00
2019-05-22T23:00:29.846Z,13.00
2019-05-22T23:03:01.627Z,12.90
2019-05-22T23:05:34.564Z,12.90
2019-05-22T23:08:05.704Z,12.80
2019-05-22T23:10:36.978Z,12.80
2019-05-22T23:13:14.445Z,12.80
2019-05-22T23:15:46.501Z,12.80
2019-05-22T23:18:32.789Z,12.70
2019-05-22T23:21:01.489Z,12.60
2019-05-22T23:23:30.453Z,12.60
2019-05-22T23:26:02.419Z,12.60
2019-05-22T23:28:35.069Z,12.60
2019-05-22T23:31:06.581Z,12.50
2019-05-22T23:33:39.657Z,12.60
2019-05-22T23:36:12.217Z,12.60
2019-05-22T23:38:43.445Z,12.50
2019-05-22T23:41:14.608Z,12.50
2019-05-22T23:43:46.336Z,12.50
2019-05-22T23:46:18.601Z,12.50
2019-05-22T23:48:54.350Z,12.50
2019-05-22T23:51:23.464Z,12.60
2019-05-22T23:53:56.090Z,12.50
2019-05-22T23:56:28.593Z,12.30
2019-05-22T23:58:59.387Z,12.40
